createdAt,value
2019-02-16T00:01:34.475Z,9.37
2019-02-16T00:04:05.845Z,11.77
2019-02-16T00:06:36.855Z,11.07
2019-02-16T00:09:08.314Z,10.17
2019-02-16T00:11:39.632Z,13.07
2019-02-16T00:14:10.984Z,10.07
2019-02-16T00:16:42.850Z,8.67
2019-02-16T00:19:14.103Z,9.77
2019-02-16T00:21:45.341Z,8.10
2019-02-16T00:24:16.626Z,13.33
2019-02-16T00:26:48.054Z,11.67
2019-02-16T00:29:19.756Z,10.47
2019-02-16T00:31:51.322Z,9.87
2019-02-16T00:34:22.850Z,11.00
2019-02-16T00:36:53.911Z,13.17
2019-02-16T00:39:25.301Z,9.60
2019-02-16T00:41:56.698Z,12.90
2019-02-16T00:44:30.204Z,9.73
2019-02-16T00:47:01.185Z,10.10
2019-02-16T00:49:32.475Z,10.53
2019-02-16T00:52:03.806Z,10.47
2019-02-16T00:54:35.084Z,8.97
2019-02-16T00:57:06.357Z,11.67
2019-02-16T00:59:37.672Z,12.20
2019-02-16T01:02:08.968Z,13.10
2019-02-16T01:04:39.975Z,9.87
2019-02-16T01:07:11.384Z,12.90
2019-02-16T01:09:42.758Z,9.07
2019-02-16T01:12:14.067Z,12.00
2019-02-16T01:14:45.489Z,14.67
2019-02-16T01:17:16.729Z,11.43
2019-02-16T01:19:48.135Z,14.40
2019-02-16T01:22:19.269Z,12.30
2019-02-16T01:24:50.871Z,16.83
2019-02-16T01:27:23.524Z,14.17
2019-02-16T01:29:55.583Z,10.13
2019-02-16T01:32:28.585Z,12.90
2019-02-16T01:34:59.986Z,10.47
2019-02-16T01:37:31.441Z,10.53
2019-02-16T01:40:03.194Z,14.30
2019-02-16T01:42:34.470Z,12.27
2019-02-16T01:45:06.302Z,9.40
2019-02-16T01:47:37.419Z,11.30
2019-02-16T01:50:09.786Z,9.90
2019-02-16T01:52:42.528Z,10.83
2019-02-16T01:55:14.013Z,17.23
2019-02-16T01:57:45.342Z,10.83
2019-02-16T02:00:16.857Z,7.90
2019-02-16T02:02:48.305Z,10.67
2019-02-16T02:05:20.774Z,12.67
2019-02-16T02:07:52.337Z,15.47
2019-02-16T02:10:23.733Z,13.13
2019-02-16T02:12:55.145Z,17.20
2019-02-16T02:15:26.984Z,10.77
2019-02-16T02:17:58.722Z,13.67
2019-02-16T02:20:31.373Z,13.30
2019-02-16T02:23:02.872Z,13.33
2019-02-16T02:25:34.073Z,11.77
2019-02-16T02:28:05.654Z,9.60
2019-02-16T02:30:36.785Z,11.43
2019-02-16T02:33:08.924Z,10.07
2019-02-16T02:35:40.321Z,14.43
2019-02-16T02:38:11.973Z,12.30
2019-02-16T02:40:43.142Z,10.70
2019-02-16T02:43:16.162Z,11.20
2019-02-16T02:45:48.910Z,13.57
2019-02-16T02:48:20.293Z,9.73
2019-02-16T02:50:51.617Z,12.70
2019-02-16T02:53:30.816Z,9.70
2019-02-16T02:55:56.269Z,10.33
2019-02-16T02:58:27.751Z,15.07
2019-02-16T03:01:00.483Z,13.23
2019-02-16T03:03:31.867Z,11.17
2019-02-16T03:06:03.299Z,10.10
2019-02-16T03:08:34.738Z,13.00
2019-02-16T03:11:06.293Z,15.87
2019-02-16T03:13:38.045Z,12.77
2019-02-16T03:16:09.555Z,13.43
2019-02-16T03:18:41.210Z,11.17
2019-02-16T03:21:13.016Z,15.80
2019-02-16T03:23:44.507Z,12.97
2019-02-16T03:26:32.987Z,16.83
2019-02-16T03:29:15.449Z,11.83
2019-02-16T03:32:31.270Z,13.83
2019-02-16T03:35:28.826Z,12.67
2019-02-16T03:38:35.978Z,11.90
2019-02-16T03:41:07.381Z,13.93
2019-02-16T03:43:38.446Z,12.00
2019-02-16T03:46:09.646Z,12.83
2019-02-16T03:48:40.998Z,15.03
2019-02-16T03:51:12.402Z,13.87
2019-02-16T03:53:43.788Z,17.13
2019-02-16T03:56:15.433Z,14.63
2019-02-16T03:58:46.890Z,12.43
2019-02-16T04:01:17.989Z,14.20
2019-02-16T04:03:49.405Z,15.17
2019-02-16T04:06:21.377Z,15.67
2019-02-16T04:08:52.770Z,14.53
2019-02-16T04:11:24.169Z,12.17
2019-02-16T04:13:55.597Z,12.67
2019-02-16T04:16:27.027Z,13.67
2019-02-16T04:18:58.473Z,13.63
2019-02-16T04:21:29.758Z,11.67
2019-02-16T04:24:00.793Z,14.53
2019-02-16T04:26:32.217Z,15.83
2019-02-16T04:29:03.572Z,16.50
2019-02-16T04:31:34.828Z,15.80
2019-02-16T04:34:05.969Z,11.53
2019-02-16T04:36:37.214Z,18.10
2019-02-16T04:39:08.532Z,17.47
2019-02-16T04:41:39.786Z,13.37
2019-02-16T04:44:11.323Z,16.53
2019-02-16T04:46:42.511Z,11.20
2019-02-16T04:49:13.788Z,13.23
2019-02-16T04:51:45.184Z,12.17
2019-02-16T04:54:16.443Z,14.93
2019-02-16T04:56:48.258Z,13.13
2019-02-16T04:59:19.748Z,16.07
2019-02-16T05:01:50.994Z,11.00
2019-02-16T05:04:22.008Z,11.60
2019-02-16T05:06:53.249Z,14.97
2019-02-16T05:09:24.496Z,10.97
2019-02-16T05:11:57.020Z,12.07
2019-02-16T05:14:28.631Z,10.10
2019-02-16T05:17:00.199Z,11.77
2019-02-16T05:19:31.629Z,13.60
2019-02-16T05:22:03.029Z,14.63
2019-02-16T05:24:34.427Z,14.40
2019-02-16T05:27:05.736Z,13.77
2019-02-16T05:29:37.005Z,13.13
2019-02-16T05:32:08.296Z,13.00
2019-02-16T05:34:39.875Z,12.47
2019-02-16T05:37:11.367Z,12.50
2019-02-16T05:39:42.683Z,17.73
2019-02-16T05:42:13.943Z,12.73
2019-02-16T05:44:45.371Z,14.07
2019-02-16T05:47:16.943Z,15.27
2019-02-16T05:49:48.480Z,13.43
2019-02-16T05:52:19.719Z,12.40
2019-02-16T05:54:51.310Z,15.40
2019-02-16T05:57:22.331Z,13.30
2019-02-16T05:59:53.628Z,15.97
2019-02-16T06:02:24.880Z,13.47
2019-02-16T06:04:56.906Z,15.27
2019-02-16T06:07:27.960Z,13.50
2019-02-16T06:09:59.290Z,11.53
2019-02-16T06:12:30.559Z,17.20
2019-02-16T06:15:01.916Z,12.37
2019-02-16T06:17:33.447Z,15.97
2019-02-16T06:20:05.015Z,11.13
2019-02-16T06:22:36.269Z,17.13
2019-02-16T06:25:08.508Z,14.30
2019-02-16T06:27:40.097Z,16.57
2019-02-16T06:30:11.253Z,14.57
2019-02-16T06:32:42.683Z,14.87
2019-02-16T06:35:34.290Z,20.30
2019-02-16T06:38:05.301Z,16.97
2019-02-16T06:40:36.368Z,12.93
2019-02-16T06:43:07.357Z,15.63
2019-02-16T06:45:39.134Z,15.90
2019-02-16T06:48:10.395Z,16.17
2019-02-16T06:50:41.807Z,16.40
2019-02-16T06:53:13.698Z,13.30
2019-02-16T06:55:55.481Z,15.07
2019-02-16T06:58:26.848Z,14.40
2019-02-16T07:00:58.138Z,15.90
2019-02-16T07:03:30.088Z,15.23
2019-02-16T07:06:01.388Z,19.33
2019-02-16T07:08:32.619Z,15.27
2019-02-16T07:11:03.780Z,15.33
2019-02-16T07:13:35.298Z,23.07
2019-02-16T07:16:41.123Z,25.13
2019-02-16T07:19:22.140Z,17.70
2019-02-16T07:21:56.405Z,19.23
2019-02-16T07:24:27.621Z,16.03
2019-02-16T07:26:58.934Z,18.27
2019-02-16T07:29:30.627Z,17.70
2019-02-16T07:32:02.128Z,17.60
2019-02-16T07:34:33.385Z,13.00
2019-02-16T07:37:04.711Z,14.20
2019-02-16T07:39:35.961Z,18.67
2019-02-16T07:42:07.084Z,17.80
2019-02-16T07:44:54.087Z,16.17
2019-02-16T07:47:32.800Z,17.23
2019-02-16T07:50:09.175Z,15.57
2019-02-16T07:52:56.056Z,15.47
2019-02-16T07:55:35.709Z,17.23
2019-02-16T07:58:24.876Z,14.77
2019-02-16T08:01:13.832Z,14.60
2019-02-16T08:04:07.255Z,17.33
2019-02-16T08:06:50.796Z,15.57
2019-02-16T08:09:32.232Z,15.57
2019-02-16T08:12:34.699Z,15.37
2019-02-16T08:15:28.251Z,16.77
2019-02-16T08:18:15.258Z,17.70
2019-02-16T08:20:59.858Z,18.37
2019-02-16T08:23:59.278Z,19.67
2019-02-16T08:26:52.518Z,19.03
2019-02-16T08:29:48.469Z,18.63
2019-02-16T08:32:26.939Z,18.03
2019-02-16T08:35:16.963Z,31.60
2019-02-16T08:37:59.768Z,22.77
2019-02-16T08:40:59.280Z,20.37
2019-02-16T08:43:41.052Z,18.43
2019-02-16T08:46:20.679Z,19.30
2019-02-16T08:49:05.147Z,18.63
2019-02-16T08:51:49.184Z,18.43
2019-02-16T08:54:32.169Z,20.73
2019-02-16T08:57:28.693Z,17.50
2019-02-16T09:00:17.851Z,21.07
2019-02-16T09:02:59.452Z,21.33
2019-02-16T09:05:39.159Z,20.00
2019-02-16T09:08:24.787Z,26.73
2019-02-16T09:11:23.995Z,19.33
2019-02-16T09:14:21.715Z,22.73
2019-02-16T09:17:23.955Z,21.63
2019-02-16T09:20:01.976Z,22.73
2019-02-16T09:22:47.867Z,22.07
2019-02-16T09:25:28.856Z,23.60
2019-02-16T09:28:18.715Z,24.83
2019-02-16T09:31:10.263Z,20.30
2019-02-16T09:33:58.100Z,20.83
2019-02-16T09:36:37.839Z,22.37
2019-02-16T09:39:27.167Z,21.03
2019-02-16T09:42:20.660Z,21.63
2019-02-16T09:45:25.826Z,20.43
2019-02-16T09:48:16.443Z,22.73
2019-02-16T09:50:53.364Z,21.77
2019-02-16T09:53:33.200Z,27.03
2019-02-16T09:56:29.771Z,21.63
2019-02-16T09:59:13.160Z,26.27
2019-02-16T10:02:03.881Z,24.47
2019-02-16T10:04:52.916Z,22.77
2019-02-16T10:07:34.908Z,24.67
2019-02-16T10:10:15.836Z,23.53
2019-02-16T10:13:12.524Z,24.07
2019-02-16T10:15:51.291Z,22.23
2019-02-16T10:18:42.049Z,21.57
2019-02-16T10:21:36.742Z,22.70
2019-02-16T10:24:18.237Z,24.57
2019-02-16T10:27:21.136Z,22.07
2019-02-16T10:30:30.181Z,25.97
2019-02-16T10:33:19.351Z,25.70
2019-02-16T10:36:22.125Z,23.03
2019-02-16T10:39:15.710Z,24.77
2019-02-16T10:42:07.930Z,23.53
2019-02-16T10:44:44.648Z,24.70
2019-02-16T10:47:43.532Z,24.17
2019-02-16T10:50:26.587Z,24.60
2019-02-16T10:53:05.972Z,24.30
2019-02-16T10:55:54.156Z,24.07
2019-02-16T10:58:56.535Z,23.13
2019-02-16T11:01:52.952Z,24.73
2019-02-16T11:04:42.944Z,22.77
2019-02-16T11:07:32.311Z,22.40
2019-02-16T11:10:30.924Z,22.03
2019-02-16T11:13:11.388Z,24.07
2019-02-16T11:15:51.068Z,25.53
2019-02-16T11:18:53.878Z,20.80
2019-02-16T11:21:41.379Z,20.90
2019-02-16T11:24:43.621Z,22.47
2019-02-16T11:27:36.271Z,19.10
2019-02-16T11:30:20.654Z,23.70
2019-02-16T11:33:02.875Z,22.33
2019-02-16T11:35:43.226Z,23.57
2019-02-16T11:38:29.624Z,21.87
2019-02-16T11:41:22.577Z,21.77
2019-02-16T11:44:25.353Z,20.23
2019-02-16T11:47:09.840Z,23.20
2019-02-16T11:50:02.771Z,21.07
2019-02-16T11:52:56.460Z,20.00
2019-02-16T11:55:50.016Z,21.13
2019-02-16T11:58:46.290Z,20.17
2019-02-16T12:01:37.282Z,19.73
2019-02-16T12:04:23.566Z,19.80
2019-02-16T12:07:01.177Z,21.03
2019-02-16T12:09:55.032Z,18.60
2019-02-16T12:12:38.311Z,19.07
2019-02-16T12:15:14.954Z,17.13
2019-02-16T12:18:11.798Z,20.77
2019-02-16T12:21:02.376Z,21.40
2019-02-16T12:23:52.953Z,19.60
2019-02-16T12:26:34.285Z,18.93
2019-02-16T12:29:23.407Z,17.87
2019-02-16T12:32:12.731Z,22.20
2019-02-16T12:35:03.180Z,17.90
2019-02-16T12:37:44.320Z,22.50
2019-02-16T12:40:38.001Z,20.93
2019-02-16T12:43:25.140Z,22.77
2019-02-16T12:46:11.036Z,19.97
2019-02-16T12:49:08.334Z,20.10
2019-02-16T12:52:00.321Z,24.07
2019-02-16T12:54:44.075Z,23.97
2019-02-16T12:57:24.590Z,21.47
2019-02-16T13:00:24.017Z,23.23
2019-02-16T13:03:26.555Z,24.57
2019-02-16T13:06:11.643Z,21.47
2019-02-16T13:08:47.793Z,21.40
2019-02-16T13:11:24.257Z,20.97
2019-02-16T13:14:13.168Z,20.27
2019-02-16T13:16:52.068Z,22.10
2019-02-16T13:19:57.947Z,29.40
2019-02-16T13:22:37.724Z,24.97
2019-02-16T13:25:24.155Z,22.17
2019-02-16T13:27:55.801Z,30.67
2019-02-16T13:30:34.280Z,19.97
2019-02-16T13:33:21.810Z,22.67
2019-02-16T13:36:05.457Z,24.53
2019-02-16T13:39:03.412Z,23.27
2019-02-16T13:41:51.909Z,23.30
2019-02-16T13:44:44.639Z,25.23
2019-02-16T13:47:27.077Z,24.80
2019-02-16T13:50:07.246Z,25.40
2019-02-16T13:53:06.297Z,26.30
2019-02-16T13:55:56.880Z,22.57
2019-02-16T13:58:48.017Z,25.03
2019-02-16T14:01:34.335Z,25.17
2019-02-16T14:04:36.382Z,23.67
2019-02-16T14:07:21.659Z,21.80
2019-02-16T14:10:12.044Z,23.20
2019-02-16T14:13:09.447Z,27.00
2019-02-16T14:15:54.051Z,24.77
2019-02-16T14:18:26.992Z,27.03
2019-02-16T14:21:11.873Z,27.87
2019-02-16T14:23:46.008Z,22.47
2019-02-16T14:26:20.396Z,23.17
2019-02-16T14:28:52.796Z,24.60
2019-02-16T14:31:31.659Z,26.77
2019-02-16T14:34:07.451Z,26.30
2019-02-16T14:36:46.088Z,24.77
2019-02-16T14:39:29.249Z,27.80
2019-02-16T14:42:00.734Z,25.97
2019-02-16T14:44:32.641Z,26.90
2019-02-16T14:47:04.249Z,28.63
2019-02-16T14:49:35.736Z,26.63
2019-02-16T14:52:07.145Z,30.87
2019-02-16T14:54:40.198Z,28.43
2019-02-16T14:57:11.830Z,27.90
2019-02-16T14:59:43.024Z,27.07
2019-02-16T15:02:14.323Z,28.43
2019-02-16T15:04:45.592Z,29.40
2019-02-16T15:07:16.976Z,26.47
2019-02-16T15:09:48.308Z,26.00
2019-02-16T15:12:19.990Z,26.30
2019-02-16T15:14:51.497Z,30.43
2019-02-16T15:17:22.930Z,28.97
2019-02-16T15:19:54.549Z,30.87
2019-02-16T15:22:26.011Z,31.77
2019-02-16T15:24:57.132Z,29.83
2019-02-16T15:27:29.997Z,29.27
2019-02-16T15:30:01.397Z,28.10
2019-02-16T15:32:32.827Z,28.40
2019-02-16T15:35:04.076Z,26.93
2019-02-16T15:37:36.315Z,25.03
2019-02-16T15:40:08.344Z,26.80
2019-02-16T15:42:39.824Z,32.50
2019-02-16T15:45:12.972Z,31.07
2019-02-16T15:47:44.574Z,26.63
2019-02-16T15:50:16.677Z,30.87
2019-02-16T15:52:48.508Z,26.27
2019-02-16T15:55:20.088Z,29.33
2019-02-16T15:57:52.008Z,29.00
2019-02-16T16:00:25.979Z,29.57
2019-02-16T16:02:59.533Z,28.17
2019-02-16T16:05:32.387Z,27.87
2019-02-16T16:08:41.502Z,30.77
2019-02-16T16:11:34.925Z,29.73
2019-02-16T16:14:29.252Z,27.80
2019-02-16T16:17:15.452Z,31.67
2019-02-16T16:20:04.866Z,27.83
2019-02-16T16:22:48.343Z,31.67
2019-02-16T16:25:57.216Z,28.93
2019-02-16T16:28:39.025Z,29.33
2019-02-16T16:31:16.774Z,30.53
2019-02-16T16:34:06.041Z,31.47
2019-02-16T16:36:47.446Z,29.60
2019-02-16T16:39:47.658Z,27.30
2019-02-16T16:42:35.982Z,30.03
2019-02-16T16:45:29.309Z,29.03
2019-02-16T16:48:20.081Z,43.87
2019-02-16T16:50:57.776Z,42.77
2019-02-16T16:54:01.565Z,35.77
2019-02-16T16:56:39.288Z,37.33
2019-02-16T16:59:31.033Z,49.60
2019-02-16T17:02:24.875Z,35.13
2019-02-16T17:05:32.167Z,34.07
2019-02-16T17:08:22.788Z,34.77
2019-02-16T17:11:07.242Z,32.20
2019-02-16T17:14:01.453Z,31.63
2019-02-16T17:16:50.937Z,29.33
2019-02-16T17:19:30.208Z,32.27
2019-02-16T17:22:12.705Z,33.77
2019-02-16T17:25:12.246Z,36.33
2019-02-16T17:27:58.205Z,34.47
2019-02-16T17:30:55.040Z,33.10
2019-02-16T17:33:36.517Z,33.77
2019-02-16T17:36:32.857Z,33.73
2019-02-16T17:39:12.917Z,34.40
2019-02-16T17:42:05.450Z,39.47
2019-02-16T17:44:55.100Z,34.03
2019-02-16T17:47:45.092Z,30.90
2019-02-16T17:50:40.582Z,41.50
2019-02-16T17:53:39.252Z,30.80
2019-02-16T17:56:22.463Z,31.93
2019-02-16T17:59:11.800Z,36.73
2019-02-16T18:02:08.560Z,35.90
2019-02-16T18:05:02.534Z,34.53
2019-02-16T18:07:43.371Z,33.73
2019-02-16T18:10:33.842Z,33.40
2019-02-16T18:13:33.615Z,28.63
2019-02-16T18:16:12.251Z,33.67
2019-02-16T18:18:55.669Z,31.73
2019-02-16T18:21:42.649Z,34.10
2019-02-16T18:24:24.224Z,36.30
2019-02-16T18:27:25.432Z,35.50
2019-02-16T18:30:18.399Z,37.77
2019-02-16T18:33:11.810Z,36.73
2019-02-16T18:35:51.592Z,32.37
2019-02-16T18:38:50.872Z,33.03
2019-02-16T18:41:41.246Z,33.93
2019-02-16T18:44:20.335Z,31.80
2019-02-16T18:47:09.804Z,35.60
2019-02-16T18:50:01.012Z,33.00
2019-02-16T18:52:50.742Z,33.70
2019-02-16T18:55:44.089Z,31.80
2019-02-16T18:58:32.797Z,34.08
2019-02-16T19:01:16.930Z,34.33
2019-02-16T19:04:10.543Z,32.47
2019-02-16T19:06:57.506Z,32.33
2019-02-16T19:09:41.208Z,30.20
2019-02-16T19:12:25.232Z,29.40
2019-02-16T19:15:20.288Z,31.10
2019-02-16T19:18:00.597Z,25.10
2019-02-16T19:20:50.591Z,31.00
2019-02-16T19:23:41.307Z,32.23
2019-02-16T19:26:34.097Z,35.17
2019-02-16T19:29:16.329Z,35.20
2019-02-16T19:32:03.371Z,26.87
2019-02-16T19:34:56.320Z,29.70
2019-02-16T19:37:33.930Z,30.87
2019-02-16T19:40:29.610Z,32.97
2019-02-16T19:43:29.068Z,31.93
2019-02-16T19:46:16.654Z,27.60
2019-02-16T19:49:06.315Z,31.20
2019-02-16T19:52:14.947Z,31.57
2019-02-16T19:55:05.388Z,29.63
2019-02-16T19:57:56.064Z,27.43
2019-02-16T20:00:42.691Z,28.00
2019-02-16T20:03:29.600Z,29.27
2019-02-16T20:06:38.428Z,29.23
2019-02-16T20:09:16.284Z,33.67
2019-02-16T20:12:09.006Z,32.67
2019-02-16T20:14:51.933Z,28.40
2019-02-16T20:17:31.101Z,27.70
2019-02-16T20:20:34.673Z,27.37
2019-02-16T20:23:30.824Z,35.73
2019-02-16T20:26:21.480Z,33.47
2019-02-16T20:29:18.751Z,32.97
2019-02-16T20:32:00.679Z,34.47
2019-02-16T20:34:44.318Z,29.57
2019-02-16T20:37:43.617Z,27.30
2019-02-16T20:40:34.407Z,28.50
2019-02-16T20:43:33.298Z,35.77
2019-02-16T20:46:32.344Z,30.80
2019-02-16T20:49:16.363Z,31.27
2019-02-16T20:51:54.547Z,32.07
2019-02-16T20:54:42.268Z,31.23
2019-02-16T20:57:30.660Z,31.10
2019-02-16T21:00:25.021Z,34.13
2019-02-16T21:03:30.798Z,33.93
2019-02-16T21:06:27.107Z,27.93
2019-02-16T21:09:26.992Z,29.10
2019-02-16T21:12:18.544Z,30.93
2019-02-16T21:15:20.985Z,28.43
2019-02-16T21:18:11.149Z,31.00
2019-02-16T21:21:04.841Z,31.87
2019-02-16T21:23:52.270Z,31.43
2019-02-16T21:26:38.025Z,31.63
2019-02-16T21:29:31.112Z,28.30
2019-02-16T21:32:08.980Z,29.10
2019-02-16T21:35:05.249Z,34.60
2019-02-16T21:38:02.058Z,32.73
2019-02-16T21:40:51.877Z,28.97
2019-02-16T21:43:46.005Z,30.10
2019-02-16T21:46:35.250Z,33.60
2019-02-16T21:49:32.345Z,30.97
2019-02-16T21:52:25.758Z,33.93
2019-02-16T21:55:31.364Z,32.03
2019-02-16T21:58:25.964Z,31.83
2019-02-16T22:01:31.657Z,30.67
2019-02-16T22:04:16.330Z,28.93
2019-02-16T22:06:57.623Z,25.03
2019-02-16T22:09:42.483Z,26.83
2019-02-16T22:12:32.191Z,23.43
2019-02-16T22:15:03.893Z,31.40
2019-02-16T22:17:36.377Z,24.40
2019-02-16T22:20:10.250Z,28.37
2019-02-16T22:22:42.758Z,28.10
2019-02-16T22:25:14.375Z,30.33
2019-02-16T22:27:46.505Z,31.73
2019-02-16T22:30:17.648Z,27.27
2019-02-16T22:32:48.935Z,28.97
2019-02-16T22:35:20.464Z,33.27
2019-02-16T22:37:52.054Z,36.40
2019-02-16T22:40:23.452Z,30.77
2019-02-16T22:42:55.081Z,39.30
2019-02-16T22:45:26.880Z,32.63
2019-02-16T22:47:58.372Z,36.73
2019-02-16T22:50:30.018Z,30.30
2019-02-16T22:53:01.774Z,30.37
2019-02-16T22:55:33.017Z,31.50
2019-02-16T22:58:04.505Z,29.40
2019-02-16T23:00:43.709Z,32.10
2019-02-16T23:03:17.280Z,30.10
2019-02-16T23:05:49.210Z,29.97
2019-02-16T23:08:20.877Z,28.63
2019-02-16T23:10:54.946Z,32.57
2019-02-16T23:13:26.239Z,31.57
2019-02-16T23:15:57.554Z,28.27
2019-02-16T23:18:29.749Z,30.93
2019-02-16T23:21:01.081Z,32.97
2019-02-16T23:23:32.572Z,29.27
2019-02-16T23:26:04.078Z,35.93
2019-02-16T23:28:38.905Z,36.10
2019-02-16T23:31:08.592Z,33.00
2019-02-16T23:33:39.982Z,32.20
2019-02-16T23:36:12.468Z,32.97
2019-02-16T23:38:43.977Z,35.03
2019-02-16T23:41:15.282Z,32.17
2019-02-16T23:43:46.996Z,32.80
2019-02-16T23:46:18.734Z,30.20
2019-02-16T23:48:50.270Z,30.63
2019-02-16T23:51:21.774Z,34.00
2019-02-16T23:53:53.783Z,33.60
2019-02-16T23:56:25.276Z,34.40
2019-02-16T23:58:56.936Z,36.17
